sensor_id;sensor_type;location;lat;lon;timestamp;P1;durP1;ratioP1;P2;durP2;ratioP2
74707;SDS011;63360;50.104;8.074;2023-05-10T00:00:03;0.95;;;0.30;;
74707;SDS011;63360;50.104;8.074;2023-05-10T00:02:30;1.15;;;0.30;;
74707;SDS011;63360;50.104;8.074;2023-05-10T00:04:57;2.15;;;0.30;;
74707;SDS011;63360;50.104;8.074;2023-05-10T00:07:23;1.67;;;0.30;;
74707;SDS011;63360;50.104;8.074;2023-05-10T00:09:50;1.83;;;0.28;;
74707;SDS011;63360;50.104;8.074;2023-05-10T00:12:16;0.50;;;0.30;;
74707;SDS011;63360;50.104;8.074;2023-05-10T00:14:43;1.35;;;0.28;;
74707;SDS011;63360;50.104;8.074;2023-05-10T00:17:09;0.65;;;0.40;;
74707;SDS011;63360;50.104;8.074;2023-05-10T00:19:36;3.60;;;0.30;;
74707;SDS011;63360;50.104;8.074;2023-05-10T00:22:02;1.98;;;0.30;;
74707;SDS011;63360;50.104;8.074;2023-05-10T00:24:29;4.97;;;0.43;;
74707;SDS011;63360;50.104;8.074;2023-05-10T00:26:55;1.10;;;0.40;;
74707;SDS011;63360;50.104;8.074;2023-05-10T00:29:21;1.33;;;0.40;;
74707;SDS011;63360;50.104;8.074;2023-05-10T00:31:48;1.23;;;0.40;;
74707;SDS011;63360;50.104;8.074;2023-05-10T00:34:14;0.93;;;0.43;;
74707;SDS011;63360;50.104;8.074;2023-05-10T00:36:41;5.30;;;0.50;;
74707;SDS011;63360;50.104;8.074;2023-05-10T00:39:07;1.20;;;0.40;;
74707;SDS011;63360;50.104;8.074;2023-05-10T00:41:34;1.20;;;0.50;;
74707;SDS011;63360;50.104;8.074;2023-05-10T00:44:00;1.20;;;0.40;;
74707;SDS011;63360;50.104;8.074;2023-05-10T00:46:28;2.03;;;0.50;;
74707;SDS011;63360;50.104;8.074;2023-05-10T00:48:54;3.78;;;0.52;;
74707;SDS011;63360;50.104;8.074;2023-05-10T00:51:21;2.03;;;0.45;;
74707;SDS011;63360;50.104;8.074;2023-05-10T00:53:48;1.40;;;0.60;;
74707;SDS011;63360;50.104;8.074;2023-05-10T00:56:15;1.50;;;0.40;;
74707;SDS011;63360;50.104;8.074;2023-05-10T00:58:42;1.25;;;0.40;;
74707;SDS011;63360;50.104;8.074;2023-05-10T01:01:09;1.02;;;0.50;;
74707;SDS011;63360;50.104;8.074;2023-05-10T01:03:36;3.55;;;0.50;;
74707;SDS011;63360;50.104;8.074;2023-05-10T01:06:03;3.60;;;0.60;;
74707;SDS011;63360;50.104;8.074;2023-05-10T01:08:29;1.10;;;0.40;;
74707;SDS011;63360;50.104;8.074;2023-05-10T01:10:56;1.23;;;0.55;;
74707;SDS011;63360;50.104;8.074;2023-05-10T01:13:28;3.17;;;0.43;;
74707;SDS011;63360;50.104;8.074;2023-05-10T01:15:58;0.90;;;0.60;;
74707;SDS011;63360;50.104;8.074;2023-05-10T01:18:27;0.93;;;0.45;;
74707;SDS011;63360;50.104;8.074;2023-05-10T01:21:01;2.27;;;0.50;;
74707;SDS011;63360;50.104;8.074;2023-05-10T01:34:35;1.40;;;0.50;;
74707;SDS011;63360;50.104;8.074;2023-05-10T01:37:07;1.63;;;0.60;;
74707;SDS011;63360;50.104;8.074;2023-05-10T01:42:14;1.13;;;0.52;;
74707;SDS011;63360;50.104;8.074;2023-05-10T01:44:48;1.30;;;0.60;;
74707;SDS011;63360;50.104;8.074;2023-05-10T01:47:22;2.30;;;0.60;;
74707;SDS011;63360;50.104;8.074;2023-05-10T01:50:15;2.67;;;0.70;;
74707;SDS011;63360;50.104;8.074;2023-05-10T01:52:47;3.55;;;0.80;;
74707;SDS011;63360;50.104;8.074;2023-05-10T01:55:21;1.38;;;0.70;;
74707;SDS011;63360;50.104;8.074;2023-05-10T01:57:52;1.27;;;0.70;;
74707;SDS011;63360;50.104;8.074;2023-05-10T02:00:26;2.20;;;0.80;;
74707;SDS011;63360;50.104;8.074;2023-05-10T02:02:54;3.88;;;0.70;;
74707;SDS011;63360;50.104;8.074;2023-05-10T02:05:21;5.55;;;0.98;;
74707;SDS011;63360;50.104;8.074;2023-05-10T02:07:48;2.00;;;0.80;;
74707;SDS011;63360;50.104;8.074;2023-05-10T02:10:16;2.00;;;0.90;;
74707;SDS011;63360;50.104;8.074;2023-05-10T02:12:44;1.30;;;0.80;;
74707;SDS011;63360;50.104;8.074;2023-05-10T02:15:15;1.10;;;0.70;;
74707;SDS011;63360;50.104;8.074;2023-05-10T02:17:45;2.20;;;0.73;;
74707;SDS011;63360;50.104;8.074;2023-05-10T02:20:13;1.90;;;0.80;;
74707;SDS011;63360;50.104;8.074;2023-05-10T02:22:42;1.60;;;0.77;;
74707;SDS011;63360;50.104;8.074;2023-05-10T02:25:10;2.30;;;0.70;;
74707;SDS011;63360;50.104;8.074;2023-05-10T02:27:39;2.50;;;0.70;;
74707;SDS011;63360;50.104;8.074;2023-05-10T02:30:08;1.77;;;0.77;;
74707;SDS011;63360;50.104;8.074;2023-05-10T02:32:36;2.30;;;0.60;;
74707;SDS011;63360;50.104;8.074;2023-05-10T02:35:04;1.40;;;0.70;;
74707;SDS011;63360;50.104;8.074;2023-05-10T02:37:31;2.17;;;0.80;;
74707;SDS011;63360;50.104;8.074;2023-05-10T02:39:59;2.65;;;0.88;;
74707;SDS011;63360;50.104;8.074;2023-05-10T02:42:29;5.10;;;1.02;;
74707;SDS011;63360;50.104;8.074;2023-05-10T02:45:02;1.65;;;0.82;;
74707;SDS011;63360;50.104;8.074;2023-05-10T02:47:33;3.25;;;1.00;;
74707;SDS011;63360;50.104;8.074;2023-05-10T02:50:00;1.47;;;0.80;;
74707;SDS011;63360;50.104;8.074;2023-05-10T02:52:28;1.92;;;0.80;;
74707;SDS011;63360;50.104;8.074;2023-05-10T02:55:01;2.22;;;0.90;;
74707;SDS011;63360;50.104;8.074;2023-05-10T02:57:34;2.00;;;0.80;;
74707;SDS011;63360;50.104;8.074;2023-05-10T03:00:02;2.10;;;1.10;;
74707;SDS011;63360;50.104;8.074;2023-05-10T03:02:29;3.03;;;0.90;;
74707;SDS011;63360;50.104;8.074;2023-05-10T03:04:57;3.10;;;1.15;;
74707;SDS011;63360;50.104;8.074;2023-05-10T03:07:23;2.10;;;0.85;;
74707;SDS011;63360;50.104;8.074;2023-05-10T03:09:50;3.00;;;1.00;;
74707;SDS011;63360;50.104;8.074;2023-05-10T03:12:33;6.43;;;1.05;;
74707;SDS011;63360;50.104;8.074;2023-05-10T03:15:24;3.47;;;1.03;;
74707;SDS011;63360;50.104;8.074;2023-05-10T03:20:57;3.03;;;1.23;;
74707;SDS011;63360;50.104;8.074;2023-05-10T03:26:50;2.83;;;1.52;;
74707;SDS011;63360;50.104;8.074;2023-05-10T03:29:11;6.40;;;1.70;;
74707;SDS011;63360;50.104;8.074;2023-05-10T03:31:39;4.45;;;1.70;;
74707;SDS011;63360;50.104;8.074;2023-05-10T03:34:05;4.15;;;1.60;;
74707;SDS011;63360;50.104;8.074;2023-05-10T03:36:33;3.55;;;1.38;;
74707;SDS011;63360;50.104;8.074;2023-05-10T03:38:59;3.85;;;1.42;;
74707;SDS011;63360;50.104;8.074;2023-05-10T03:41:25;3.50;;;1.33;;
74707;SDS011;63360;50.104;8.074;2023-05-10T03:43:52;4.30;;;1.40;;
74707;SDS011;63360;50.104;8.074;2023-05-10T03:46:18;4.80;;;1.30;;
74707;SDS011;63360;50.104;8.074;2023-05-10T03:48:44;3.20;;;1.20;;
74707;SDS011;63360;50.104;8.074;2023-05-10T03:51:11;3.42;;;1.65;;
74707;SDS011;63360;50.104;8.074;2023-05-10T03:53:37;4.13;;;1.50;;
74707;SDS011;63360;50.104;8.074;2023-05-10T03:56:04;4.78;;;1.80;;
74707;SDS011;63360;50.104;8.074;2023-05-10T03:58:30;3.92;;;1.88;;
74707;SDS011;63360;50.104;8.074;2023-05-10T04:00:56;3.63;;;1.70;;
74707;SDS011;63360;50.104;8.074;2023-05-10T04:03:23;5.13;;;1.80;;
74707;SDS011;63360;50.104;8.074;2023-05-10T04:05:57;5.33;;;1.93;;
74707;SDS011;63360;50.104;8.074;2023-05-10T04:08:27;4.38;;;1.80;;
74707;SDS011;63360;50.104;8.074;2023-05-10T04:10:55;3.72;;;2.05;;
74707;SDS011;63360;50.104;8.074;2023-05-10T04:13:31;5.45;;;2.40;;
74707;SDS011;63360;50.104;8.074;2023-05-10T04:15:57;4.20;;;2.13;;
74707;SDS011;63360;50.104;8.074;2023-05-10T04:18:23;5.50;;;2.33;;
74707;SDS011;63360;50.104;8.074;2023-05-10T04:20:50;7.47;;;2.47;;
74707;SDS011;63360;50.104;8.074;2023-05-10T04:23:16;6.43;;;2.17;;
74707;SDS011;63360;50.104;8.074;2023-05-10T04:25:43;4.82;;;2.20;;
74707;SDS011;63360;50.104;8.074;2023-05-10T04:28:09;4.38;;;2.47;;
74707;SDS011;63360;50.104;8.074;2023-05-10T04:30:35;4.97;;;2.37;;
74707;SDS011;63360;50.104;8.074;2023-05-10T04:33:02;5.05;;;2.38;;
74707;SDS011;63360;50.104;8.074;2023-05-10T04:35:28;5.63;;;2.45;;
74707;SDS011;63360;50.104;8.074;2023-05-10T04:37:55;5.38;;;2.40;;
74707;SDS011;63360;50.104;8.074;2023-05-10T04:40:21;5.60;;;2.03;;
74707;SDS011;63360;50.104;8.074;2023-05-10T04:42:48;8.30;;;2.57;;
74707;SDS011;63360;50.104;8.074;2023-05-10T04:45:14;5.90;;;2.30;;
74707;SDS011;63360;50.104;8.074;2023-05-10T04:47:41;5.72;;;2.28;;
74707;SDS011;63360;50.104;8.074;2023-05-10T04:50:08;5.30;;;2.20;;
74707;SDS011;63360;50.104;8.074;2023-05-10T04:52:34;5.90;;;2.20;;
74707;SDS011;63360;50.104;8.074;2023-05-10T04:55:01;6.73;;;2.40;;
74707;SDS011;63360;50.104;8.074;2023-05-10T04:57:27;4.45;;;2.00;;
74707;SDS011;63360;50.104;8.074;2023-05-10T04:59:54;6.30;;;2.42;;
74707;SDS011;63360;50.104;8.074;2023-05-10T05:02:20;4.45;;;2.42;;
74707;SDS011;63360;50.104;8.074;2023-05-10T05:04:47;4.75;;;2.05;;
74707;SDS011;63360;50.104;8.074;2023-05-10T05:07:13;3.57;;;2.07;;
74707;SDS011;63360;50.104;8.074;2023-05-10T05:09:39;5.15;;;2.40;;
74707;SDS011;63360;50.104;8.074;2023-05-10T05:12:06;8.50;;;2.20;;
74707;SDS011;63360;50.104;8.074;2023-05-10T05:14:32;7.88;;;2.40;;
74707;SDS011;63360;50.104;8.074;2023-05-10T05:16:58;5.95;;;2.35;;
74707;SDS011;63360;50.104;8.074;2023-05-10T05:19:25;7.33;;;2.30;;
74707;SDS011;63360;50.104;8.074;2023-05-10T05:21:51;5.78;;;2.15;;
74707;SDS011;63360;50.104;8.074;2023-05-10T05:24:18;5.60;;;2.45;;
74707;SDS011;63360;50.104;8.074;2023-05-10T05:26:44;6.40;;;2.47;;
74707;SDS011;63360;50.104;8.074;2023-05-10T05:29:10;6.18;;;2.90;;
74707;SDS011;63360;50.104;8.074;2023-05-10T05:31:37;4.93;;;2.47;;
74707;SDS011;63360;50.104;8.074;2023-05-10T05:34:03;5.65;;;2.38;;
74707;SDS011;63360;50.104;8.074;2023-05-10T05:36:30;10.98;;;2.83;;
74707;SDS011;63360;50.104;8.074;2023-05-10T05:38:57;5.18;;;2.45;;
74707;SDS011;63360;50.104;8.074;2023-05-10T05:41:23;7.15;;;2.30;;
74707;SDS011;63360;50.104;8.074;2023-05-10T05:43:50;5.47;;;2.10;;
74707;SDS011;63360;50.104;8.074;2023-05-10T05:46:17;5.57;;;2.33;;
74707;SDS011;63360;50.104;8.074;2023-05-10T05:48:43;4.78;;;2.20;;
74707;SDS011;63360;50.104;8.074;2023-05-10T05:51:09;5.70;;;2.30;;
74707;SDS011;63360;50.104;8.074;2023-05-10T05:53:36;6.95;;;2.47;;
74707;SDS011;63360;50.104;8.074;2023-05-10T05:56:03;5.60;;;2.07;;
74707;SDS011;63360;50.104;8.074;2023-05-10T05:58:29;7.10;;;2.00;;
74707;SDS011;63360;50.104;8.074;2023-05-10T06:00:56;5.15;;;2.55;;
74707;SDS011;63360;50.104;8.074;2023-05-10T06:03:23;6.25;;;2.15;;
74707;SDS011;63360;50.104;8.074;2023-05-10T06:05:49;4.25;;;2.00;;
74707;SDS011;63360;50.104;8.074;2023-05-10T06:08:16;7.57;;;2.03;;
74707;SDS011;63360;50.104;8.074;2023-05-10T06:10:42;6.00;;;1.95;;
74707;SDS011;63360;50.104;8.074;2023-05-10T06:13:09;4.10;;;2.10;;
74707;SDS011;63360;50.104;8.074;2023-05-10T06:15:36;5.50;;;2.28;;
74707;SDS011;63360;50.104;8.074;2023-05-10T06:18:02;5.47;;;2.10;;
74707;SDS011;63360;50.104;8.074;2023-05-10T06:20:29;6.00;;;1.83;;
74707;SDS011;63360;50.104;8.074;2023-05-10T06:22:57;5.72;;;1.88;;
74707;SDS011;63360;50.104;8.074;2023-05-10T06:25:24;4.07;;;2.08;;
74707;SDS011;63360;50.104;8.074;2023-05-10T06:27:50;10.70;;;2.50;;
74707;SDS011;63360;50.104;8.074;2023-05-10T06:30:21;2.88;;;1.55;;
74707;SDS011;63360;50.104;8.074;2023-05-10T06:32:53;6.97;;;1.80;;
74707;SDS011;63360;50.104;8.074;2023-05-10T06:35:19;3.15;;;1.50;;
74707;SDS011;63360;50.104;8.074;2023-05-10T06:37:46;3.42;;;1.70;;
74707;SDS011;63360;50.104;8.074;2023-05-10T06:40:12;4.25;;;1.58;;
74707;SDS011;63360;50.104;8.074;2023-05-10T06:42:39;6.28;;;1.50;;
74707;SDS011;63360;50.104;8.074;2023-05-10T06:45:06;4.83;;;1.40;;
74707;SDS011;63360;50.104;8.074;2023-05-10T06:47:32;4.38;;;1.40;;
74707;SDS011;63360;50.104;8.074;2023-05-10T06:50:03;5.05;;;1.58;;
74707;SDS011;63360;50.104;8.074;2023-05-10T06:52:29;4.43;;;1.60;;
74707;SDS011;63360;50.104;8.074;2023-05-10T06:54:56;4.10;;;1.50;;
74707;SDS011;63360;50.104;8.074;2023-05-10T06:57:23;3.27;;;1.33;;
74707;SDS011;63360;50.104;8.074;2023-05-10T06:59:55;3.80;;;1.40;;
74707;SDS011;63360;50.104;8.074;2023-05-10T07:02:22;4.18;;;1.65;;
74707;SDS011;63360;50.104;8.074;2023-05-10T07:04:49;3.38;;;1.60;;
74707;SDS011;63360;50.104;8.074;2023-05-10T07:07:16;3.88;;;1.42;;
74707;SDS011;63360;50.104;8.074;2023-05-10T07:09:42;3.57;;;1.40;;
74707;SDS011;63360;50.104;8.074;2023-05-10T07:12:08;6.05;;;1.70;;
74707;SDS011;63360;50.104;8.074;2023-05-10T07:14:37;3.95;;;1.95;;
74707;SDS011;63360;50.104;8.074;2023-05-10T07:17:04;4.38;;;1.60;;
74707;SDS011;63360;50.104;8.074;2023-05-10T07:19:30;4.38;;;1.40;;
74707;SDS011;63360;50.104;8.074;2023-05-10T07:21:58;5.53;;;1.37;;
74707;SDS011;63360;50.104;8.074;2023-05-10T07:24:25;4.68;;;1.40;;
74707;SDS011;63360;50.104;8.074;2023-05-10T07:26:51;4.72;;;1.65;;
74707;SDS011;63360;50.104;8.074;2023-05-10T07:29:17;3.40;;;1.45;;
74707;SDS011;63360;50.104;8.074;2023-05-10T07:31:44;3.92;;;1.50;;
74707;SDS011;63360;50.104;8.074;2023-05-10T07:34:10;5.10;;;1.60;;
74707;SDS011;63360;50.104;8.074;2023-05-10T07:36:37;4.03;;;1.48;;
74707;SDS011;63360;50.104;8.074;2023-05-10T07:39:03;4.63;;;1.42;;
74707;SDS011;63360;50.104;8.074;2023-05-10T07:41:30;3.25;;;1.42;;
74707;SDS011;63360;50.104;8.074;2023-05-10T07:43:56;2.35;;;1.30;;
74707;SDS011;63360;50.104;8.074;2023-05-10T07:46:22;2.90;;;1.53;;
74707;SDS011;63360;50.104;8.074;2023-05-10T07:48:49;2.15;;;1.30;;
74707;SDS011;63360;50.104;8.074;2023-05-10T07:51:15;5.78;;;1.40;;
74707;SDS011;63360;50.104;8.074;2023-05-10T07:53:42;6.35;;;1.50;;
74707;SDS011;63360;50.104;8.074;2023-05-10T07:58:55;4.53;;;1.30;;
74707;SDS011;63360;50.104;8.074;2023-05-10T08:01:22;7.15;;;1.42;;
74707;SDS011;63360;50.104;8.074;2023-05-10T08:03:49;4.53;;;1.33;;
74707;SDS011;63360;50.104;8.074;2023-05-10T08:06:17;3.72;;;1.33;;
74707;SDS011;63360;50.104;8.074;2023-05-10T08:08:48;4.55;;;1.50;;
74707;SDS011;63360;50.104;8.074;2023-05-10T08:11:16;4.60;;;1.53;;
74707;SDS011;63360;50.104;8.074;2023-05-10T08:13:46;5.00;;;1.60;;
74707;SDS011;63360;50.104;8.074;2023-05-10T08:16:13;3.53;;;1.85;;
74707;SDS011;63360;50.104;8.074;2023-05-10T08:18:40;4.00;;;1.63;;
74707;SDS011;63360;50.104;8.074;2023-05-10T08:21:06;4.63;;;1.90;;
74707;SDS011;63360;50.104;8.074;2023-05-10T08:23:33;4.87;;;1.90;;
74707;SDS011;63360;50.104;8.074;2023-05-10T08:25:59;3.45;;;1.80;;
74707;SDS011;63360;50.104;8.074;2023-05-10T08:28:26;3.60;;;1.60;;
74707;SDS011;63360;50.104;8.074;2023-05-10T08:30:53;4.57;;;1.90;;
74707;SDS011;63360;50.104;8.074;2023-05-10T08:33:19;4.13;;;1.85;;
74707;SDS011;63360;50.104;8.074;2023-05-10T08:35:46;4.77;;;1.87;;
74707;SDS011;63360;50.104;8.074;2023-05-10T08:38:12;7.60;;;2.20;;
74707;SDS011;63360;50.104;8.074;2023-05-10T08:40:40;4.25;;;1.80;;
74707;SDS011;63360;50.104;8.074;2023-05-10T08:43:09;3.42;;;1.58;;
74707;SDS011;63360;50.104;8.074;2023-05-10T08:45:41;4.68;;;1.90;;
74707;SDS011;63360;50.104;8.074;2023-05-10T08:48:09;6.87;;;1.70;;
74707;SDS011;63360;50.104;8.074;2023-05-10T08:50:37;5.28;;;1.60;;
74707;SDS011;63360;50.104;8.074;2023-05-10T08:53:11;3.78;;;1.27;;
74707;SDS011;63360;50.104;8.074;2023-05-10T08:55:39;3.45;;;1.25;;
74707;SDS011;63360;50.104;8.074;2023-05-10T08:58:08;3.13;;;1.55;;
74707;SDS011;63360;50.104;8.074;2023-05-10T09:00:35;3.33;;;1.50;;
74707;SDS011;63360;50.104;8.074;2023-05-10T09:03:03;4.50;;;1.40;;
74707;SDS011;63360;50.104;8.074;2023-05-10T09:05:31;4.03;;;1.70;;
74707;SDS011;63360;50.104;8.074;2023-05-10T09:07:58;2.80;;;1.20;;
74707;SDS011;63360;50.104;8.074;2023-05-10T09:10:26;3.67;;;1.40;;
74707;SDS011;63360;50.104;8.074;2023-05-10T09:12:55;2.97;;;1.10;;
74707;SDS011;63360;50.104;8.074;2023-05-10T09:15:24;3.65;;;1.15;;
74707;SDS011;63360;50.104;8.074;2023-05-10T09:17:51;5.45;;;1.30;;
74707;SDS011;63360;50.104;8.074;2023-05-10T09:20:18;2.38;;;0.88;;
74707;SDS011;63360;50.104;8.074;2023-05-10T09:22:45;2.47;;;0.80;;
74707;SDS011;63360;50.104;8.074;2023-05-10T09:25:12;3.63;;;0.93;;
74707;SDS011;63360;50.104;8.074;2023-05-10T09:27:41;3.50;;;0.85;;
74707;SDS011;63360;50.104;8.074;2023-05-10T09:30:15;2.70;;;1.08;;
74707;SDS011;63360;50.104;8.074;2023-05-10T09:32:45;2.78;;;0.85;;
74707;SDS011;63360;50.104;8.074;2023-05-10T09:35:14;1.98;;;1.10;;
74707;SDS011;63360;50.104;8.074;2023-05-10T09:37:44;3.30;;;0.70;;
74707;SDS011;63360;50.104;8.074;2023-05-10T09:40:16;1.42;;;0.80;;
74707;SDS011;63360;50.104;8.074;2023-05-10T09:45:33;1.40;;;0.80;;
74707;SDS011;63360;50.104;8.074;2023-05-10T09:48:03;2.92;;;0.80;;
74707;SDS011;63360;50.104;8.074;2023-05-10T09:50:30;1.37;;;0.73;;
74707;SDS011;63360;50.104;8.074;2023-05-10T09:55:26;2.13;;;0.70;;
74707;SDS011;63360;50.104;8.074;2023-05-10T09:58:04;3.65;;;0.88;;
74707;SDS011;63360;50.104;8.074;2023-05-10T10:00:39;3.38;;;0.80;;
74707;SDS011;63360;50.104;8.074;2023-05-10T10:03:11;3.97;;;0.70;;
74707;SDS011;63360;50.104;8.074;2023-05-10T10:05:40;2.85;;;0.80;;
74707;SDS011;63360;50.104;8.074;2023-05-10T10:08:11;2.00;;;0.60;;
74707;SDS011;63360;50.104;8.074;2023-05-10T10:10:38;2.80;;;0.70;;
74707;SDS011;63360;50.104;8.074;2023-05-10T10:13:06;5.68;;;0.60;;
74707;SDS011;63360;50.104;8.074;2023-05-10T10:15:34;1.37;;;0.50;;
74707;SDS011;63360;50.104;8.074;2023-05-10T10:18:01;1.42;;;0.50;;
74707;SDS011;63360;50.104;8.074;2023-05-10T10:20:29;1.80;;;0.55;;
74707;SDS011;63360;50.104;8.074;2023-05-10T10:22:56;2.75;;;0.75;;
74707;SDS011;63360;50.104;8.074;2023-05-10T10:25:22;3.17;;;0.60;;
74707;SDS011;63360;50.104;8.074;2023-05-10T10:30:51;1.42;;;0.50;;
74707;SDS011;63360;50.104;8.074;2023-05-10T10:36:13;2.50;;;0.50;;
74707;SDS011;63360;50.104;8.074;2023-05-10T10:49:48;1.35;;;0.43;;
74707;SDS011;63360;50.104;8.074;2023-05-10T10:55:01;1.80;;;0.60;;
74707;SDS011;63360;50.104;8.074;2023-05-10T10:57:27;1.40;;;0.50;;
74707;SDS011;63360;50.104;8.074;2023-05-10T11:05:34;1.30;;;0.68;;
74707;SDS011;63360;50.104;8.074;2023-05-10T11:08:07;2.80;;;0.70;;
74707;SDS011;63360;50.104;8.074;2023-05-10T11:10:34;1.23;;;0.60;;
74707;SDS011;63360;50.104;8.074;2023-05-10T11:15:36;5.22;;;0.70;;
74707;SDS011;63360;50.104;8.074;2023-05-10T11:21:03;1.70;;;0.90;;
74707;SDS011;63360;50.104;8.074;2023-05-10T11:26:09;1.35;;;0.60;;
74707;SDS011;63360;50.104;8.074;2023-05-10T11:28:43;3.22;;;0.90;;
74707;SDS011;63360;50.104;8.074;2023-05-10T11:31:13;3.75;;;0.60;;
74707;SDS011;63360;50.104;8.074;2023-05-10T11:33:47;2.07;;;0.57;;
74707;SDS011;63360;50.104;8.074;2023-05-10T11:36:14;1.83;;;0.50;;
74707;SDS011;63360;50.104;8.074;2023-05-10T11:38:42;2.13;;;0.60;;
74707;SDS011;63360;50.104;8.074;2023-05-10T11:41:09;1.75;;;0.50;;
74707;SDS011;63360;50.104;8.074;2023-05-10T11:43:40;2.25;;;0.70;;
74707;SDS011;63360;50.104;8.074;2023-05-10T11:46:10;1.57;;;0.60;;
74707;SDS011;63360;50.104;8.074;2023-05-10T11:48:39;3.15;;;0.60;;
74707;SDS011;63360;50.104;8.074;2023-05-10T11:51:06;3.28;;;0.60;;
74707;SDS011;63360;50.104;8.074;2023-05-10T11:53:33;2.40;;;0.50;;
74707;SDS011;63360;50.104;8.074;2023-05-10T11:56:06;2.35;;;0.60;;
74707;SDS011;63360;50.104;8.074;2023-05-10T11:58:37;2.80;;;0.50;;
74707;SDS011;63360;50.104;8.074;2023-05-10T12:01:05;3.00;;;0.40;;
74707;SDS011;63360;50.104;8.074;2023-05-10T12:03:33;1.30;;;0.40;;
74707;SDS011;63360;50.104;8.074;2023-05-10T12:06:01;1.77;;;0.30;;
74707;SDS011;63360;50.104;8.074;2023-05-10T12:08:28;1.95;;;0.40;;
74707;SDS011;63360;50.104;8.074;2023-05-10T12:11:06;1.97;;;0.40;;
74707;SDS011;63360;50.104;8.074;2023-05-10T12:13:41;3.65;;;0.85;;
74707;SDS011;63360;50.104;8.074;2023-05-10T12:16:18;2.03;;;0.40;;
74707;SDS011;63360;50.104;8.074;2023-05-10T12:18:50;4.82;;;1.15;;
74707;SDS011;63360;50.104;8.074;2023-05-10T12:21:18;3.08;;;0.90;;
74707;SDS011;63360;50.104;8.074;2023-05-10T12:23:48;2.07;;;0.40;;
74707;SDS011;63360;50.104;8.074;2023-05-10T12:26:16;0.90;;;0.47;;
74707;SDS011;63360;50.104;8.074;2023-05-10T12:28:43;1.95;;;0.50;;
74707;SDS011;63360;50.104;8.074;2023-05-10T12:31:10;4.00;;;0.52;;
74707;SDS011;63360;50.104;8.074;2023-05-10T12:33:38;1.50;;;0.50;;
74707;SDS011;63360;50.104;8.074;2023-05-10T12:36:05;2.30;;;0.60;;
74707;SDS011;63360;50.104;8.074;2023-05-10T12:38:33;1.20;;;0.50;;
74707;SDS011;63360;50.104;8.074;2023-05-10T12:41:01;3.05;;;0.60;;
74707;SDS011;63360;50.104;8.074;2023-05-10T12:43:29;3.40;;;0.50;;
74707;SDS011;63360;50.104;8.074;2023-05-10T12:45:56;1.17;;;0.50;;
74707;SDS011;63360;50.104;8.074;2023-05-10T12:48:22;1.70;;;0.50;;
74707;SDS011;63360;50.104;8.074;2023-05-10T12:50:49;1.77;;;0.50;;
74707;SDS011;63360;50.104;8.074;2023-05-10T12:53:16;1.38;;;0.43;;
74707;SDS011;63360;50.104;8.074;2023-05-10T12:55:43;3.58;;;0.50;;
74707;SDS011;63360;50.104;8.074;2023-05-10T12:58:10;2.92;;;0.50;;
74707;SDS011;63360;50.104;8.074;2023-05-10T13:00:46;2.83;;;0.50;;
74707;SDS011;63360;50.104;8.074;2023-05-10T13:03:12;3.90;;;0.50;;
74707;SDS011;63360;50.104;8.074;2023-05-10T13:05:39;1.25;;;0.40;;
74707;SDS011;63360;50.104;8.074;2023-05-10T13:08:05;1.20;;;0.40;;
74707;SDS011;63360;50.104;8.074;2023-05-10T13:10:32;4.32;;;0.50;;
74707;SDS011;63360;50.104;8.074;2023-05-10T13:12:58;2.27;;;0.47;;
74707;SDS011;63360;50.104;8.074;2023-05-10T13:15:25;1.00;;;0.50;;
74707;SDS011;63360;50.104;8.074;2023-05-10T13:17:52;2.13;;;0.60;;
74707;SDS011;63360;50.104;8.074;2023-05-10T13:20:20;2.58;;;1.40;;
74707;SDS011;63360;50.104;8.074;2023-05-10T13:22:47;3.88;;;1.00;;
74707;SDS011;63360;50.104;8.074;2023-05-10T13:25:15;3.63;;;0.80;;
74707;SDS011;63360;50.104;8.074;2023-05-10T13:27:41;1.58;;;0.73;;
74707;SDS011;63360;50.104;8.074;2023-05-10T13:30:08;1.23;;;0.50;;
74707;SDS011;63360;50.104;8.074;2023-05-10T13:32:35;1.35;;;0.50;;
74707;SDS011;63360;50.104;8.074;2023-05-10T13:35:02;1.00;;;0.55;;
74707;SDS011;63360;50.104;8.074;2023-05-10T13:37:29;1.93;;;0.60;;
74707;SDS011;63360;50.104;8.074;2023-05-10T13:39:56;1.05;;;0.50;;
74707;SDS011;63360;50.104;8.074;2023-05-10T13:42:23;2.08;;;0.60;;
74707;SDS011;63360;50.104;8.074;2023-05-10T13:44:50;1.30;;;0.70;;
74707;SDS011;63360;50.104;8.074;2023-05-10T13:47:16;1.58;;;0.68;;
74707;SDS011;63360;50.104;8.074;2023-05-10T13:49:43;1.90;;;0.73;;
74707;SDS011;63360;50.104;8.074;2023-05-10T13:52:09;1.10;;;0.68;;
74707;SDS011;63360;50.104;8.074;2023-05-10T13:54:36;0.90;;;0.60;;
74707;SDS011;63360;50.104;8.074;2023-05-10T13:57:04;1.58;;;0.65;;
74707;SDS011;63360;50.104;8.074;2023-05-10T13:59:31;1.27;;;0.70;;
74707;SDS011;63360;50.104;8.074;2023-05-10T14:01:58;2.50;;;1.00;;
74707;SDS011;63360;50.104;8.074;2023-05-10T14:04:24;1.30;;;0.60;;
74707;SDS011;63360;50.104;8.074;2023-05-10T14:06:51;1.10;;;0.65;;
74707;SDS011;63360;50.104;8.074;2023-05-10T14:09:19;1.95;;;0.80;;
74707;SDS011;63360;50.104;8.074;2023-05-10T14:11:45;1.33;;;0.68;;
74707;SDS011;63360;50.104;8.074;2023-05-10T14:14:12;2.70;;;1.03;;
74707;SDS011;63360;50.104;8.074;2023-05-10T14:16:43;2.22;;;0.77;;
74707;SDS011;63360;50.104;8.074;2023-05-10T14:19:10;2.05;;;0.70;;
74707;SDS011;63360;50.104;8.074;2023-05-10T14:21:37;2.53;;;0.77;;
74707;SDS011;63360;50.104;8.074;2023-05-10T14:24:04;4.55;;;0.90;;
74707;SDS011;63360;50.104;8.074;2023-05-10T14:26:30;3.37;;;1.10;;
74707;SDS011;63360;50.104;8.074;2023-05-10T14:28:57;1.52;;;0.75;;
74707;SDS011;63360;50.104;8.074;2023-05-10T14:31:25;4.70;;;1.08;;
74707;SDS011;63360;50.104;8.074;2023-05-10T14:33:52;4.35;;;0.88;;
74707;SDS011;63360;50.104;8.074;2023-05-10T14:36:18;1.73;;;0.90;;
74707;SDS011;63360;50.104;8.074;2023-05-10T14:38:45;1.13;;;0.60;;
74707;SDS011;63360;50.104;8.074;2023-05-10T14:41:11;3.38;;;0.65;;
74707;SDS011;63360;50.104;8.074;2023-05-10T14:43:40;1.38;;;0.70;;
74707;SDS011;63360;50.104;8.074;2023-05-10T14:46:07;1.73;;;0.55;;
74707;SDS011;63360;50.104;8.074;2023-05-10T14:48:33;1.67;;;0.73;;
74707;SDS011;63360;50.104;8.074;2023-05-10T14:51:00;1.47;;;0.80;;
74707;SDS011;63360;50.104;8.074;2023-05-10T14:53:26;1.92;;;0.70;;
74707;SDS011;63360;50.104;8.074;2023-05-10T14:55:53;3.67;;;0.80;;
74707;SDS011;63360;50.104;8.074;2023-05-10T14:58:19;1.80;;;0.80;;
74707;SDS011;63360;50.104;8.074;2023-05-10T15:00:45;1.63;;;0.80;;
74707;SDS011;63360;50.104;8.074;2023-05-10T15:03:13;1.33;;;0.80;;
74707;SDS011;63360;50.104;8.074;2023-05-10T15:05:40;1.85;;;0.70;;
74707;SDS011;63360;50.104;8.074;2023-05-10T15:08:06;2.53;;;1.50;;
74707;SDS011;63360;50.104;8.074;2023-05-10T15:10:32;2.22;;;1.50;;
74707;SDS011;63360;50.104;8.074;2023-05-10T15:12:59;6.43;;;2.60;;
74707;SDS011;63360;50.104;8.074;2023-05-10T15:15:26;7.43;;;3.20;;
74707;SDS011;63360;50.104;8.074;2023-05-10T15:17:52;3.17;;;1.50;;
74707;SDS011;63360;50.104;8.074;2023-05-10T15:20:19;3.22;;;1.10;;
74707;SDS011;63360;50.104;8.074;2023-05-10T15:22:45;1.30;;;0.77;;
74707;SDS011;63360;50.104;8.074;2023-05-10T15:25:12;1.90;;;0.80;;
74707;SDS011;63360;50.104;8.074;2023-05-10T15:27:39;2.87;;;0.70;;
74707;SDS011;63360;50.104;8.074;2023-05-10T15:30:06;2.78;;;0.73;;
74707;SDS011;63360;50.104;8.074;2023-05-10T15:32:33;1.13;;;0.80;;
74707;SDS011;63360;50.104;8.074;2023-05-10T15:34:59;2.45;;;0.90;;
74707;SDS011;63360;50.104;8.074;2023-05-10T15:37:26;1.30;;;0.80;;
74707;SDS011;63360;50.104;8.074;2023-05-10T15:39:52;4.53;;;1.03;;
74707;SDS011;63360;50.104;8.074;2023-05-10T15:42:22;3.35;;;1.35;;
74707;SDS011;63360;50.104;8.074;2023-05-10T15:44:48;3.85;;;0.80;;
74707;SDS011;63360;50.104;8.074;2023-05-10T15:47:16;1.83;;;0.80;;
74707;SDS011;63360;50.104;8.074;2023-05-10T15:49:42;1.70;;;0.90;;
74707;SDS011;63360;50.104;8.074;2023-05-10T15:52:09;2.43;;;0.73;;